Time;durP1;ratioP1;P1;durP2;ratioP2;P2;SDS_P1;SDS_P2;PMS_P1;PMS_P2;Temp;Humidity;BMP_temperature;BMP_pressure;BME280_temperature;BME280_humidity;BME280_pressure;Samples;Min_cycle;Max_cycle;Signal;HPM_P1;HPM_P2
2023/07/29 00:00:26;;;;;;;;;;;;;;;24.21;55.93;96829.85;621224;228;67252;-61
2023/07/29 00:02:54;;;;;;;;;;;;;;;24.20;56.49;96821.01;621257;228;66876;-61
2023/07/29 00:05:21;;;;;;;;;;;;;;;24.20;53.61;96822.87;621201;228;62784;-61
2023/07/29 00:07:48;;;;;;;;;;;;;;;24.20;55.89;96823.69;621245;228;67176;-61
2023/07/29 00:10:16;;;;;;;;;;;;;;;24.20;57.81;96818.32;621304;228;64760;-61
2023/07/29 00:12:44;;;;;;;;;;;;;;;24.19;56.27;96811.34;621179;227;62406;-61
2023/07/29 00:15:12;;;;;;;;;;;;;;;24.19;55.92;96816.71;621237;228;64886;-61
2023/07/29 00:17:39;;;;;;;;;;;;;;;24.18;56.90;96807.08;621202;228;67179;-61
2023/07/29 00:20:08;;;;;;;;;;;;;;;24.18;56.40;96800.91;621240;228;64733;-61
2023/07/29 00:22:35;;;;;;;;;;;;;;;24.19;55.91;96803.28;621166;228;67312;-61
2023/07/29 00:25:03;;;;;;;;;;;;;;;24.19;58.06;96797.91;621260;228;67012;-61
2023/07/29 00:27:30;;;;;;;;;;;;;;;24.18;55.52;96782.91;621188;228;64783;-61
2023/07/29 00:29:58;;;;;;;;;;;;;;;24.18;55.39;96779.44;621186;228;67049;-61
2023/07/29 00:32:25;;;;;;;;;;;;;;;24.20;56.35;96785.28;621186;228;67513;-61
2023/07/29 00:34:53;;;;;;;;;;;;;;;24.19;57.20;96786.38;621199;228;64693;-61
2023/07/29 00:37:20;;;;;;;;;;;;;;;24.18;56.94;96790.17;621232;228;67088;-61
2023/07/29 00:39:48;;;;;;;;;;;;;;;24.18;57.95;96780.22;621172;228;64796;-61
2023/07/29 00:42:16;;;;;;;;;;;;;;;24.15;55.59;96776.24;621157;228;64877;-61
2023/07/29 00:44:43;;;;;;;;;;;;;;;24.17;56.78;96780.51;621108;228;68020;-61
2023/07/29 00:47:12;;;;;;;;;;;;;;;24.16;55.45;96774.34;621171;228;67057;-61
2023/07/29 00:49:39;;;;;;;;;;;;;;;24.17;57.21;96772.45;621230;228;64794;-61
2023/07/29 00:52:07;;;;;;;;;;;;;;;24.14;54.01;96769.30;621182;228;67228;-61
2023/07/29 00:54:34;;;;;;;;;;;;;;;24.15;54.67;96778.92;621192;228;67088;-61
2023/07/29 00:57:04;;;;;;;;;;;;;;;24.15;54.99;96778.92;621218;228;65385;-61
2023/07/29 00:59:31;;;;;;;;;;;;;;;24.17;55.60;96788.56;621155;228;66926;-61
2023/07/29 01:01:59;;;;;;;;;;;;;;;24.16;53.92;96801.20;621248;228;66955;-61
2023/07/29 01:04:26;;;;;;;;;;;;;;;24.16;54.12;96806.56;621183;228;64740;-61
2023/07/29 01:07:05;;;;;;;;;;;;;;;24.16;52.56;96811.94;621190;228;67362;-61
2023/07/29 01:09:36;;;;;;;;;;;;;;;24.17;54.95;96807.36;621200;228;67028;-61
2023/07/29 01:12:09;;;;;;;;;;;;;;;24.18;56.93;96803.59;620976;227;63343;-62
2023/07/29 01:14:47;;;;;;;;;;;;;;;24.16;56.50;96801.20;621201;228;67198;-62
2023/07/29 01:17:16;;;;;;;;;;;;;;;24.17;57.66;96802.78;621264;228;67795;-61
2023/07/29 01:20:07;;;;;;;;;;;;;;;24.14;54.42;96796.14;621158;228;64620;-61
2023/07/29 01:22:32;;;;;;;;;;;;;;;24.15;56.18;96803.09;620966;228;64375;-60
2023/07/29 01:25:00;;;;;;;;;;;;;;;24.15;56.52;96794.25;621210;228;66726;-60
2023/07/29 01:27:27;;;;;;;;;;;;;;;24.15;56.59;96794.25;621210;228;64726;-68
2023/07/29 01:29:56;;;;;;;;;;;;;;;24.15;57.27;96795.03;621184;228;66713;-68
2023/07/29 01:32:30;;;;;;;;;;;;;;;24.14;56.35;96798.00;621255;228;64621;-67
2023/07/29 01:35:00;;;;;;;;;;;;;;;24.13;55.22;96797.21;620963;228;63678;-67
2023/07/29 01:37:29;;;;;;;;;;;;;;;24.15;56.24;96797.72;621203;228;66848;-68
2023/07/29 01:39:58;;;;;;;;;;;;;;;24.15;56.75;96794.25;621227;228;66903;-68
2023/07/29 01:42:26;;;;;;;;;;;;;;;24.15;55.69;96794.25;621195;228;63210;-68
2023/07/29 01:44:54;;;;;;;;;;;;;;;24.13;54.73;96796.42;621223;228;66967;-61
2023/07/29 01:47:22;;;;;;;;;;;;;;;24.13;55.77;96802.58;621180;228;66804;-61
2023/07/29 01:49:50;;;;;;;;;;;;;;;24.14;56.59;96798.83;621175;228;62681;-61
2023/07/29 01:52:18;;;;;;;;;;;;;;;24.13;55.71;96794.53;621194;228;64740;-61
2023/07/29 01:54:45;;;;;;;;;;;;;;;24.12;55.46;96803.69;621139;228;67353;-61
2023/07/29 01:57:13;;;;;;;;;;;;;;;24.13;56.21;96805.27;621231;228;63433;-61
2023/07/29 01:59:40;;;;;;;;;;;;;;;24.13;56.74;96799.90;621236;228;67216;-61
2023/07/29 02:02:08;;;;;;;;;;;;;;;24.12;57.43;96800.21;621205;228;64919;-61
2023/07/29 02:04:36;;;;;;;;;;;;;;;24.12;56.86;96808.27;621159;228;65381;-61
2023/07/29 02:07:03;;;;;;;;;;;;;;;24.10;56.91;96805.86;621186;228;67355;-61
2023/07/29 02:09:31;;;;;;;;;;;;;;;24.10;54.60;96802.39;621193;228;67010;-61
2023/07/29 02:11:59;;;;;;;;;;;;;;;24.12;54.23;96810.95;621216;227;64729;-61
2023/07/29 02:14:26;;;;;;;;;;;;;;;24.11;53.55;96806.66;621150;228;67010;-61
2023/07/29 02:16:54;;;;;;;;;;;;;;;24.10;53.52;96803.18;621207;228;66958;-61
2023/07/29 02:19:22;;;;;;;;;;;;;;;24.11;54.50;96798.59;621155;228;63306;-68
2023/07/29 02:21:49;;;;;;;;;;;;;;;24.12;55.00;96802.90;621188;228;67442;-68
2023/07/29 02:24:17;;;;;;;;;;;;;;;24.11;54.46;96802.08;621247;228;66912;-68
2023/07/29 02:26:45;;;;;;;;;;;;;;;24.11;56.06;96799.39;621152;228;64562;-68
2023/07/29 02:29:12;;;;;;;;;;;;;;;24.11;56.00;96799.39;621158;228;67044;-68
2023/07/29 02:31:39;;;;;;;;;;;;;;;24.10;54.24;96797.02;621171;228;66820;-68
2023/07/29 02:34:07;;;;;;;;;;;;;;;24.10;55.90;96803.18;621201;228;62446;-68
2023/07/29 02:36:34;;;;;;;;;;;;;;;24.10;54.19;96797.81;621286;228;66870;-68
2023/07/29 02:39:02;;;;;;;;;;;;;;;24.09;53.88;96808.83;621181;228;67180;-68
2023/07/29 02:41:30;;;;;;;;;;;;;;;24.11;57.05;96809.34;621188;228;64720;-68
2023/07/29 02:43:57;;;;;;;;;;;;;;;24.09;53.97;96812.34;621163;228;67017;-68
2023/07/29 02:46:25;;;;;;;;;;;;;;;24.10;53.71;96810.44;621200;228;67674;-68
2023/07/29 02:48:52;;;;;;;;;;;;;;;24.11;56.32;96814.70;621244;228;64731;-68
2023/07/29 02:51:20;;;;;;;;;;;;;;;24.09;55.26;96812.34;621177;228;64650;-61
2023/07/29 02:53:47;;;;;;;;;;;;;;;24.09;57.54;96812.34;621228;228;66746;-61
2023/07/29 02:56:15;;;;;;;;;;;;;;;24.08;54.00;96820.67;621170;228;64570;-61
2023/07/29 02:58:42;;;;;;;;;;;;;;;24.07;53.64;96817.20;621196;228;67680;-61
2023/07/29 03:01:10;;;;;;;;;;;;;;;24.08;54.04;96818.78;621270;228;67316;-61
2023/07/29 03:03:38;;;;;;;;;;;;;;;24.08;55.52;96821.46;621179;228;65161;-61
2023/07/29 03:06:06;;;;;;;;;;;;;;;24.07;53.62;96819.88;621221;228;64326;-61
2023/07/29 03:08:34;;;;;;;;;;;;;;;24.08;56.65;96824.15;621124;228;66992;-61
2023/07/29 03:11:08;;;;;;;;;;;;;;;24.08;54.06;96826.83;621167;228;65414;-61
2023/07/29 03:13:36;;;;;;;;;;;;;;;24.09;54.74;96822.25;621215;228;67001;-62
2023/07/29 03:16:11;;;;;;;;;;;;;;;24.08;53.61;96828.72;621239;228;66627;-62
2023/07/29 03:18:39;;;;;;;;;;;;;;;24.08;54.28;96826.83;621205;228;62656;-60
2023/07/29 03:21:06;;;;;;;;;;;;;;;24.09;56.38;96831.13;621169;228;65588;-60
2023/07/29 03:23:34;;;;;;;;;;;;;;;24.08;57.49;96832.20;621200;228;64633;-60
2023/07/29 03:26:09;;;;;;;;;;;;;;;24.06;53.40;96829.04;621218;228;64736;-60
2023/07/29 03:28:33;;;;;;;;;;;;;;;24.06;53.70;96828.22;621000;228;66747;-60
2023/07/29 03:31:01;;;;;;;;;;;;;;;24.06;52.59;96837.09;621178;228;64451;-60
2023/07/29 03:33:29;;;;;;;;;;;;;;;24.06;53.39;96836.27;621155;228;65216;-60
2023/07/29 03:35:56;;;;;;;;;;;;;;;24.06;55.94;96834.41;621176;228;67085;-60
2023/07/29 03:38:24;;;;;;;;;;;;;;;24.07;55.18;96835.20;621182;228;66653;-60
2023/07/29 03:40:51;;;;;;;;;;;;;;;24.07;57.23;96832.52;621241;228;65521;-60
2023/07/29 03:43:19;;;;;;;;;;;;;;;24.06;55.95;96838.95;621171;228;66716;-60
2023/07/29 03:45:46;;;;;;;;;;;;;;;24.05;56.65;96835.48;621179;228;67256;-60
2023/07/29 03:48:14;;;;;;;;;;;;;;;24.04;53.54;96838.48;621174;228;64771;-60
2023/07/29 03:50:41;;;;;;;;;;;;;;;24.05;55.02;96843.53;621189;228;67582;-60
2023/07/29 03:53:09;;;;;;;;;;;;;;;24.05;55.83;96843.53;621248;228;66622;-60
2023/07/29 03:55:37;;;;;;;;;;;;;;;24.05;56.41;96845.42;621249;228;62601;-60
2023/07/29 03:58:05;;;;;;;;;;;;;;;24.04;54.07;96841.16;621191;228;66852;-61
2023/07/29 04:00:32;;;;;;;;;;;;;;;24.03;54.05;96851.08;621213;228;66692;-60
2023/07/29 04:03:00;;;;;;;;;;;;;;;24.03;54.73;96845.70;621226;228;64583;-60
2023/07/29 04:05:27;;;;;;;;;;;;;;;24.03;55.04;96845.70;621234;228;64664;-60
2023/07/29 04:07:55;;;;;;;;;;;;;;;24.03;54.74;96852.97;621274;228;64611;-60
2023/07/29 04:10:22;;;;;;;;;;;;;;;24.02;52.24;96844.13;621208;228;65246;-60
2023/07/29 04:12:50;;;;;;;;;;;;;;;24.03;52.52;96844.91;621932;227;66917;-61
2023/07/29 04:15:17;;;;;;;;;;;;;;;24.03;54.86;96847.60;622285;228;66395;-60
2023/07/29 04:17:45;;;;;;;;;;;;;;;24.02;55.24;96838.75;622306;228;64692;-60
2023/07/29 04:20:13;;;;;;;;;;;;;;;24.02;54.19;96846.81;622352;228;64363;-60
2023/07/29 04:22:40;;;;;;;;;;;;;;;24.02;54.93;96846.02;622265;228;67271;-61
2023/07/29 04:25:08;;;;;;;;;;;;;;;24.01;55.18;96839.86;622293;228;62376;-60
2023/07/29 04:27:35;;;;;;;;;;;;;;;24.01;55.32;96839.03;622313;228;64548;-60
2023/07/29 04:30:03;;;;;;;;;;;;;;;24.00;54.75;96837.45;622291;228;65299;-60
2023/07/29 04:32:30;;;;;;;;;;;;;;;24.00;55.71;96832.09;622374;228;64557;-60
2023/07/29 04:34:58;;;;;;;;;;;;;;;23.99;56.90;96839.34;622321;228;67773;-60
2023/07/29 04:37:25;;;;;;;;;;;;;;;23.98;55.76;96831.58;622295;228;66775;-60
2023/07/29 04:39:53;;;;;;;;;;;;;;;23.99;54.52;96846.61;622332;228;65505;-60
2023/07/29 04:42:20;;;;;;;;;;;;;;;23.98;55.88;96843.14;622257;228;66650;-60
2023/07/29 04:44:49;;;;;;;;;;;;;;;23.98;55.56;96843.14;622369;228;67538;-60
2023/07/29 04:47:17;;;;;;;;;;;;;;;23.98;55.96;96847.68;622318;228;62409;-60
2023/07/29 04:49:44;;;;;;;;;;;;;;;23.97;56.07;96846.10;622320;228;64589;-60
2023/07/29 04:52:12;;;;;;;;;;;;;;;23.97;54.45;96846.89;622286;228;66799;-60
2023/07/29 04:54:39;;;;;;;;;;;;;;;23.97;55.73;96852.27;622309;228;64818;-60
2023/07/29 04:57:07;;;;;;;;;;;;;;;23.96;54.31;96850.67;622314;228;66851;-60
2023/07/29 04:59:34;;;;;;;;;;;;;;;23.96;54.39;96866.78;622322;228;64652;-60
2023/07/29 05:02:04;;;;;;;;;;;;;;;23.95;54.67;96854.44;622367;228;39316;-60
2023/07/29 05:04:31;;;;;;;;;;;;;;;23.96;55.73;96858.73;622328;228;64576;-60
2023/07/29 05:06:59;;;;;;;;;;;;;;;23.96;54.78;96860.63;622287;228;64600;-61
2023/07/29 05:09:26;;;;;;;;;;;;;;;23.96;55.55;96861.41;622331;228;64903;-60
2023/07/29 05:11:54;;;;;;;;;;;;;;;23.95;55.84;96857.12;621946;227;67595;-60
2023/07/29 05:14:21;;;;;;;;;;;;;;;23.95;55.54;96870.53;621218;228;66807;-60
2023/07/29 05:16:49;;;;;;;;;;;;;;;23.96;55.00;96874.05;621222;228;64669;-60
2023/07/29 05:19:16;;;;;;;;;;;;;;;23.96;55.84;96869.47;621217;228;67018;-60
2023/07/29 05:21:44;;;;;;;;;;;;;;;23.95;55.02;96870.53;621227;228;66607;-60
2023/07/29 05:24:11;;;;;;;;;;;;;;;23.96;55.51;96880.20;621245;228;63545;-60
2023/07/29 05:26:39;;;;;;;;;;;;;;;23.95;55.88;96873.22;621221;228;64471;-60
2023/07/29 05:29:06;;;;;;;;;;;;;;;23.95;55.93;96869.75;621282;228;66366;-60
2023/07/29 05:31:34;;;;;;;;;;;;;;;23.94;55.73;96866.27;621234;228;64774;-60
2023/07/29 05:34:01;;;;;;;;;;;;;;;23.95;56.08;96869.75;621215;228;66616;-60
2023/07/29 05:36:29;;;;;;;;;;;;;;;23.94;56.77;96858.22;621245;228;65479;-60
2023/07/29 05:38:57;;;;;;;;;;;;;;;23.93;56.33;96854.74;621221;228;64550;-60
2023/07/29 05:41:27;;;;;;;;;;;;;;;23.93;56.23;96848.58;621226;228;66753;-60
2023/07/29 05:43:54;;;;;;;;;;;;;;;23.93;57.04;96845.91;621232;228;66983;-61
2023/07/29 05:46:21;;;;;;;;;;;;;;;23.92;53.14;96849.66;621236;228;64882;-61
2023/07/29 05:48:49;;;;;;;;;;;;;;;23.94;55.95;96850.17;621294;228;64397;-61
2023/07/29 05:51:17;;;;;;;;;;;;;;;23.94;53.54;96842.11;621189;228;64278;-61
2023/07/29 05:53:44;;;;;;;;;;;;;;;23.94;56.73;96839.43;621219;228;64795;-62
2023/07/29 05:56:12;;;;;;;;;;;;;;;23.93;56.67;96841.33;621202;228;66582;-61
2023/07/29 05:58:40;;;;;;;;;;;;;;;23.94;54.98;96842.11;621203;228;64505;-61
2023/07/29 06:01:07;;;;;;;;;;;;;;;23.93;56.81;96835.95;621200;228;64736;-62
2023/07/29 06:03:35;;;;;;;;;;;;;;;23.94;57.38;96842.11;621179;228;67144;-60
2023/07/29 06:06:03;;;;;;;;;;;;;;;23.93;56.76;96833.27;621116;228;64612;-60
2023/07/29 06:08:32;;;;;;;;;;;;;;;23.93;54.47;96837.84;621102;228;63066;-60
2023/07/29 06:10:59;;;;;;;;;;;;;;;23.93;54.63;96832.48;621192;228;64579;-61
2023/07/29 06:13:27;;;;;;;;;;;;;;;23.93;56.11;96833.27;622137;227;64565;-61
2023/07/29 06:15:55;;;;;;;;;;;;;;;23.94;56.46;96836.75;622251;228;64622;-61
2023/07/29 06:18:22;;;;;;;;;;;;;;;23.93;55.15;96827.91;622296;228;66559;-61
2023/07/29 06:20:50;;;;;;;;;;;;;;;23.92;53.04;96830.87;622278;228;64478;-61
2023/07/29 06:23:18;;;;;;;;;;;;;;;23.94;52.93;96828.70;622283;228;64820;-61
2023/07/29 06:25:45;;;;;;;;;;;;;;;23.94;55.04;96828.70;622306;228;66805;-61
2023/07/29 06:28:13;;;;;;;;;;;;;;;23.95;54.74;96824.12;622329;228;64702;-61
2023/07/29 06:30:40;;;;;;;;;;;;;;;23.96;58.07;96828.41;622284;228;64833;-61
2023/07/29 06:33:09;;;;;;;;;;;;;;;23.96;55.60;96829.20;622281;228;66881;-61
2023/07/29 06:35:36;;;;;;;;;;;;;;;23.96;57.56;96818.47;622258;228;66842;-61
2023/07/29 06:38:04;;;;;;;;;;;;;;;23.96;57.15;96823.05;622291;228;64723;-68
2023/07/29 06:40:31;;;;;;;;;;;;;;;23.97;57.91;96816.58;622306;228;67026;-68
2023/07/29 06:42:59;;;;;;;;;;;;;;;23.97;56.68;96813.89;622278;228;66786;-69
2023/07/29 06:45:26;;;;;;;;;;;;;;;23.97;57.66;96814.68;622243;228;64722;-69
2023/07/29 06:47:54;;;;;;;;;;;;;;;23.98;57.97;96810.92;622233;228;67232;-69
2023/07/29 06:50:21;;;;;;;;;;;;;;;23.97;57.44;96814.68;622245;228;64962;-69
2023/07/29 06:55:23;;;;;;;;;;;;;;;23.97;57.09;96819.27;620398;227;49608;-70
2023/07/29 06:57:51;;;;;;;;;;;;;;;23.99;58.08;96823.25;622255;228;67039;-69
2023/07/29 07:00:18;;;;;;;;;;;;;;;23.98;58.69;96821.66;622252;228;64742;-70
2023/07/29 07:02:46;;;;;;;;;;;;;;;23.98;57.71;96821.66;622237;228;67217;-69
2023/07/29 07:05:13;;;;;;;;;;;;;;;24.00;58.42;96813.30;622307;228;64851;-69
2023/07/29 07:07:41;;;;;;;;;;;;;;;24.00;58.19;96811.41;622300;228;62593;-68
2023/07/29 07:10:09;;;;;;;;;;;;;;;24.01;58.04;96812.20;622212;228;64505;-68
2023/07/29 07:12:36;;;;;;;;;;;;;;;24.02;57.56;96808.44;622195;227;66968;-68
2023/07/29 07:15:04;;;;;;;;;;;;;;;24.02;56.64;96811.91;622229;228;64885;-68
2023/07/29 07:17:31;;;;;;;;;;;;;;;24.03;56.93;96818.86;622292;228;67467;-67
2023/07/29 07:19:59;;;;;;;;;;;;;;;24.03;56.33;96813.50;622328;228;67037;-67
2023/07/29 07:22:26;;;;;;;;;;;;;;;24.03;57.49;96816.17;622265;228;64723;-67
2023/07/29 07:24:54;;;;;;;;;;;;;;;24.04;58.41;96808.95;622193;228;67253;-67
2023/07/29 07:27:21;;;;;;;;;;;;;;;24.04;57.32;96811.62;622279;228;66983;-69
2023/07/29 07:29:49;;;;;;;;;;;;;;;24.05;58.02;96811.32;622288;228;62716;-69
2023/07/29 07:32:16;;;;;;;;;;;;;;;24.04;56.21;96807.05;622350;228;65037;-69
2023/07/29 07:34:44;;;;;;;;;;;;;;;24.05;56.20;96805.95;622289;228;64901;-68
2023/07/29 07:37:11;;;;;;;;;;;;;;;24.04;55.69;96801.69;622281;228;62585;-69
2023/07/29 07:39:38;;;;;;;;;;;;;;;24.06;53.66;96802.19;622258;228;65276;-68
2023/07/29 07:42:06;;;;;;;;;;;;;;;24.07;52.32;96811.83;622312;228;66978;-68
2023/07/29 07:44:34;;;;;;;;;;;;;;;24.08;51.58;96810.72;622345;228;65407;-68
2023/07/29 07:47:02;;;;;;;;;;;;;;;24.10;51.47;96807.76;622293;228;64914;-68
2023/07/29 07:49:29;;;;;;;;;;;;;;;24.10;52.02;96803.18;622307;228;64844;-68
2023/07/29 07:51:57;;;;;;;;;;;;;;;24.11;53.05;96804.76;622249;228;62596;-68
2023/07/29 07:54:24;;;;;;;;;;;;;;;24.11;52.26;96804.76;622283;228;67269;-68
2023/07/29 07:56:52;;;;;;;;;;;;;;;24.12;51.71;96801.00;622375;228;64498;-68
2023/07/29 07:59:19;;;;;;;;;;;;;;;24.13;51.62;96799.90;622289;228;64802;-68
2023/07/29 08:01:47;;;;;;;;;;;;;;;24.13;51.66;96796.42;622306;228;67175;-68
2023/07/29 08:04:14;;;;;;;;;;;;;;;24.14;52.53;96796.14;622270;228;67362;-68
2023/07/29 08:06:42;;;;;;;;;;;;;;;24.15;51.81;96791.56;622265;228;64548;-68
2023/07/29 08:09:09;;;;;;;;;;;;;;;24.15;51.79;96792.35;622360;228;64867;-68
2023/07/29 08:11:37;;;;;;;;;;;;;;;24.17;51.80;96794.72;622258;227;64875;-68
2023/07/29 08:14:04;;;;;;;;;;;;;;;24.17;51.93;96783.19;622287;228;64726;-68
2023/07/29 08:16:32;;;;;;;;;;;;;;;24.18;52.01;96784.80;622288;228;67294;-68
2023/07/29 08:18:59;;;;;;;;;;;;;;;24.17;52.12;96775.93;622218;228;67191;-68
2023/07/29 08:21:27;;;;;;;;;;;;;;;24.17;52.15;96773.24;622314;228;64750;-69
2023/07/29 08:23:55;;;;;;;;;;;;;;;24.18;52.24;96779.44;622267;228;64784;-68
2023/07/29 08:26:22;;;;;;;;;;;;;;;24.18;52.25;96779.44;622247;228;67060;-68
2023/07/29 08:28:50;;;;;;;;;;;;;;;24.18;53.47;96774.06;622275;228;62598;-68
2023/07/29 08:31:17;;;;;;;;;;;;;;;24.19;55.47;96773.75;622272;228;64990;-68
2023/07/29 08:33:45;;;;;;;;;;;;;;;24.19;52.52;96767.59;622263;228;65001;-68
2023/07/29 08:36:12;;;;;;;;;;;;;;;24.19;52.42;96765.69;622323;228;64515;-68
2023/07/29 08:38:40;;;;;;;;;;;;;;;24.18;53.28;96766.80;622308;228;67203;-68
2023/07/29 08:41:24;;;;;;;;;;;;;;;24.19;55.55;96762.22;622289;228;67036;-68
2023/07/29 08:43:53;;;;;;;;;;;;;;;24.19;55.83;96763.01;622238;228;63210;-68
2023/07/29 08:46:20;;;;;;;;;;;;;;;24.19;51.91;96759.53;622159;228;64971;-68
2023/07/29 08:48:48;;;;;;;;;;;;;;;24.20;52.84;96766.48;622342;228;64885;-68
2023/07/29 08:51:16;;;;;;;;;;;;;;;24.20;54.75;96755.74;622277;228;62601;-68
2023/07/29 08:53:44;;;;;;;;;;;;;;;24.19;53.71;96764.91;622265;228;65078;-68
2023/07/29 08:56:11;;;;;;;;;;;;;;;24.19;53.17;96760.33;622278;228;65008;-68
2023/07/29 08:58:40;;;;;;;;;;;;;;;24.19;53.04;96756.84;622236;228;62690;-68
2023/07/29 09:01:07;;;;;;;;;;;;;;;24.20;53.87;96758.43;622330;228;67249;-69
2023/07/29 09:03:34;;;;;;;;;;;;;;;24.20;54.77;96755.74;622297;228;64806;-68
2023/07/29 09:06:03;;;;;;;;;;;;;;;24.19;53.13;96756.84;622277;228;62671;-68
2023/07/29 09:08:31;;;;;;;;;;;;;;;24.20;53.50;96761.11;622276;228;67192;-68
2023/07/29 09:10:58;;;;;;;;;;;;;;;24.20;52.91;96761.11;622252;228;66808;-68
2023/07/29 09:13:26;;;;;;;;;;;;;;;24.21;52.66;96755.46;622249;227;64719;-68
2023/07/29 09:15:58;;;;;;;;;;;;;;;24.22;53.02;96758.94;622345;228;67380;-68
2023/07/29 09:18:27;;;;;;;;;;;;;;;24.22;53.13;96756.25;622235;228;67362;-69
2023/07/29 09:20:54;;;;;;;;;;;;;;;24.23;53.17;96758.65;622285;228;64801;-69
2023/07/29 09:23:22;;;;;;;;;;;;;;;24.24;53.08;96762.13;622295;228;67045;-69
2023/07/29 09:25:49;;;;;;;;;;;;;;;24.24;53.12;96756.75;622237;228;64930;-68
2023/07/29 09:28:17;;;;;;;;;;;;;;;24.24;53.29;96756.75;622335;228;62692;-66
2023/07/29 09:30:46;;;;;;;;;;;;;;;24.24;53.18;96754.86;622286;228;67200;-66
2023/07/29 09:33:14;;;;;;;;;;;;;;;24.24;53.12;96760.23;622286;228;66896;-68
2023/07/29 09:35:41;;;;;;;;;;;;;;;24.24;53.25;96759.44;622320;228;64670;-69
2023/07/29 09:38:09;;;;;;;;;;;;;;;24.24;53.25;96756.75;622285;228;66763;-67
2023/07/29 09:40:37;;;;;;;;;;;;;;;24.24;53.18;96760.23;622326;228;66859;-67
2023/07/29 09:43:06;;;;;;;;;;;;;;;24.26;53.25;96754.58;622286;228;64709;-68
2023/07/29 09:45:35;;;;;;;;;;;;;;;24.24;53.28;96754.86;622311;228;65180;-67
2023/07/29 09:48:04;;;;;;;;;;;;;;;24.25;53.41;96753.75;622282;228;66798;-67
2023/07/29 09:50:32;;;;;;;;;;;;;;;24.24;53.42;96749.48;622291;228;64723;-68
2023/07/29 09:53:00;;;;;;;;;;;;;;;24.25;53.48;96755.65;622354;228;66906;-67
2023/07/29 09:55:27;;;;;;;;;;;;;;;24.24;53.51;96754.86;622322;228;64779;-67
2023/07/29 09:57:56;;;;;;;;;;;;;;;24.25;53.47;96755.65;622293;228;62890;-68
2023/07/29 10:00:24;;;;;;;;;;;;;;;24.25;53.37;96752.97;622269;228;67169;-69
2023/07/29 10:02:52;;;;;;;;;;;;;;;24.25;52.99;96748.38;622261;228;64990;-62
2023/07/29 10:05:20;;;;;;;;;;;;;;;24.26;53.43;96749.20;622260;228;61993;-61
2023/07/29 10:07:49;;;;;;;;;;;;;;;24.26;53.46;96749.99;622304;228;67291;-61
2023/07/29 10:10:17;;;;;;;;;;;;;;;24.26;53.54;96744.63;622237;228;67038;-61
2023/07/29 10:12:45;;;;;;;;;;;;;;;24.26;53.76;96746.52;622257;227;64678;-61
2023/07/29 10:15:14;;;;;;;;;;;;;;;24.25;53.58;96734.96;622240;228;67170;-61
2023/07/29 10:17:41;;;;;;;;;;;;;;;24.27;53.48;96742.73;622262;228;67057;-61
2023/07/29 10:20:10;;;;;;;;;;;;;;;24.26;53.98;96733.09;622329;228;64674;-61
2023/07/29 10:22:39;;;;;;;;;;;;;;;24.27;52.39;96738.15;622281;228;65046;-61
2023/07/29 10:25:11;;;;;;;;;;;;;;;24.28;47.24;96738.94;622265;228;66825;-61
2023/07/29 10:27:46;;;;;;;;;;;;;;;24.29;53.19;96735.17;622277;228;62609;-62
2023/07/29 10:30:13;;;;;;;;;;;;;;;24.28;53.32;96734.39;622148;228;67293;-62
2023/07/29 10:32:44;;;;;;;;;;;;;;;24.28;53.71;96736.25;622251;228;65215;-69
2023/07/29 10:35:15;;;;;;;;;;;;;;;24.27;53.73;96731.98;622304;228;64774;-69
2023/07/29 10:37:45;;;;;;;;;;;;;;;24.28;53.62;96736.25;622261;228;67230;-69
2023/07/29 10:40:12;;;;;;;;;;;;;;;24.27;53.50;96729.30;622281;228;67068;-69
2023/07/29 10:42:41;;;;;;;;;;;;;;;24.26;53.74;96728.52;622262;228;64541;-69
2023/07/29 10:45:19;;;;;;;;;;;;;;;24.27;53.72;96727.41;621553;227;67271;-69
2023/07/29 10:47:47;;;;;;;;;;;;;;;24.27;53.58;96715.87;622307;228;67058;-69
2023/07/29 10:50:22;;;;;;;;;;;;;;;24.27;53.57;96715.87;622305;228;64697;-69
2023/07/29 10:52:50;;;;;;;;;;;;;;;24.26;53.71;96708.92;622260;228;64683;-69
2023/07/29 10:55:32;;;;;;;;;;;;;;;24.27;53.74;96708.61;622244;228;67130;-69
2023/07/29 10:58:17;;;;;;;;;;;;;;;24.26;53.69;96701.66;622259;228;64683;-69
2023/07/29 11:00:45;;;;;;;;;;;;;;;24.27;50.46;96699.77;622246;228;65331;-69
2023/07/29 11:03:16;;;;;;;;;;;;;;;24.27;50.16;96697.87;622271;228;64929;-69
2023/07/29 11:05:48;;;;;;;;;;;;;;;24.28;52.87;96699.48;622287;228;64738;-69
2023/07/29 11:08:26;;;;;;;;;;;;;;;24.28;53.69;96704.03;622230;228;67223;-69
2023/07/29 11:11:07;;;;;;;;;;;;;;;24.27;49.78;96697.87;622167;228;67240;-69
2023/07/29 11:13:35;;;;;;;;;;;;;;;24.30;50.92;96696.48;622256;228;65050;-69
2023/07/29 11:16:04;;;;;;;;;;;;;;;24.30;46.17;96691.89;622254;228;67301;-69
2023/07/29 11:18:33;;;;;;;;;;;;;;;24.33;48.83;96698.56;622261;228;65012;-69
2023/07/29 11:21:01;;;;;;;;;;;;;;;24.31;53.29;96692.72;622335;228;64945;-69
2023/07/29 11:23:31;;;;;;;;;;;;;;;24.30;48.65;96691.11;622223;228;67298;-69
2023/07/29 11:25:58;;;;;;;;;;;;;;;24.30;53.13;96693.80;622026;227;64960;-67
2023/07/29 11:28:26;;;;;;;;;;;;;;;24.30;52.21;96699.16;622268;228;64486;-66
2023/07/29 11:30:56;;;;;;;;;;;;;;;24.30;51.05;96691.11;622226;228;67295;-69
2023/07/29 11:33:25;;;;;;;;;;;;;;;24.30;48.04;96693.80;622132;227;64973;-69
2023/07/29 11:35:53;;;;;;;;;;;;;;;24.31;52.97;96692.72;622074;228;62705;-69
2023/07/29 11:38:20;;;;;;;;;;;;;;;24.30;52.25;96683.84;622282;228;64885;-69
2023/07/29 11:40:56;;;;;;;;;;;;;;;24.31;50.76;96684.66;622267;228;64643;-69
2023/07/29 11:43:23;;;;;;;;;;;;;;;24.33;46.14;96683.23;621986;228;64789;-69
2023/07/29 11:45:52;;;;;;;;;;;;;;;24.34;48.18;96679.47;622262;228;67169;-69
2023/07/29 11:48:21;;;;;;;;;;;;;;;24.32;48.23;96676.28;622293;228;67400;-69
2023/07/29 11:50:48;;;;;;;;;;;;;;;24.35;47.07;96664.15;622017;227;62747;-69
2023/07/29 11:53:16;;;;;;;;;;;;;;;24.36;47.75;96669.23;622257;228;67238;-69
2023/07/29 11:55:43;;;;;;;;;;;;;;;24.38;46.48;96663.55;622235;228;66877;-69
2023/07/29 11:58:11;;;;;;;;;;;;;;;24.37;45.60;96660.06;622243;228;64731;-69
2023/07/29 12:00:39;;;;;;;;;;;;;;;24.39;46.20;96665.16;622302;228;65201;-69
2023/07/29 12:03:08;;;;;;;;;;;;;;;24.39;46.87;96662.47;622255;228;67046;-69
2023/07/29 12:05:36;;;;;;;;;;;;;;;24.38;44.71;96661.65;622290;228;64737;-69
2023/07/29 12:08:04;;;;;;;;;;;;;;;24.39;47.98;96662.47;622226;228;66966;-69
2023/07/29 12:10:32;;;;;;;;;;;;;;;24.38;47.15;96658.96;622253;228;67056;-69
2023/07/29 12:12:59;;;;;;;;;;;;;;;24.39;46.94;96659.78;621415;227;64680;-69
2023/07/29 12:15:28;;;;;;;;;;;;;;;24.38;46.68;96652.80;621159;228;67469;-70
2023/07/29 12:17:58;;;;;;;;;;;;;;;24.38;47.74;96648.22;621206;228;67106;-69
2023/07/29 12:20:26;;;;;;;;;;;;;;;24.37;47.40;96646.64;621222;228;64812;-69
2023/07/29 12:22:55;;;;;;;;;;;;;;;24.39;47.00;96649.03;621165;228;67238;-69
2023/07/29 12:25:23;;;;;;;;;;;;;;;24.40;46.50;96649.83;621244;228;66994;-67
2023/07/29 12:27:50;;;;;;;;;;;;;;;24.39;46.31;96651.72;621266;228;62713;-69
2023/07/29 12:30:19;;;;;;;;;;;;;;;24.40;46.23;96649.83;621201;228;64988;-69
2023/07/29 12:32:47;;;;;;;;;;;;;;;24.39;46.82;96654.41;621206;228;64955;-69
2023/07/29 12:35:15;;;;;;;;;;;;;;;24.38;47.61;96652.80;621160;228;64929;-68
2023/07/29 12:37:42;;;;;;;;;;;;;;;24.38;46.00;96642.06;621183;228;65008;-69
2023/07/29 12:40:12;;;;;;;;;;;;;;;24.38;46.77;96642.06;621244;228;64845;-68
2023/07/29 12:42:39;;;;;;;;;;;;;;;24.40;45.68;96642.56;620663;228;62711;-68
2023/07/29 12:45:07;;;;;;;;;;;;;;;24.40;47.98;96641.77;621203;228;65216;-68
2023/07/29 12:47:35;;;;;;;;;;;;;;;24.38;46.29;96639.37;621168;228;67313;-69
2023/07/29 12:50:02;;;;;;;;;;;;;;;24.40;46.08;96639.08;621191;228;64827;-69
2023/07/29 12:52:29;;;;;;;;;;;;;;;24.40;46.44;96642.56;621223;228;67267;-68
2023/07/29 12:54:57;;;;;;;;;;;;;;;24.42;46.31;96636.87;621227;228;64721;-68